sensor_id;sensor_type;location;lat;lon;timestamp;P1;durP1;ratioP1;P2;durP2;ratioP2
29774;SDS011;16676;51.202;6.774;2024-02-23T00:00:30;1.88;;;0.90;;
29774;SDS011;16676;51.202;6.774;2024-02-23T00:04:32;1.30;;;0.90;;
29774;SDS011;16676;51.202;6.774;2024-02-23T00:08:33;2.70;;;1.20;;
29774;SDS011;16676;51.202;6.774;2024-02-23T00:12:35;2.67;;;0.93;;
29774;SDS011;16676;51.202;6.774;2024-02-23T00:16:39;2.85;;;0.80;;
29774;SDS011;16676;51.202;6.774;2024-02-23T00:20:41;1.17;;;0.55;;
29774;SDS011;16676;51.202;6.774;2024-02-23T00:24:44;1.90;;;0.73;;
29774;SDS011;16676;51.202;6.774;2024-02-23T00:28:46;3.13;;;0.90;;
29774;SDS011;16676;51.202;6.774;2024-02-23T00:32:49;1.52;;;0.77;;
29774;SDS011;16676;51.202;6.774;2024-02-23T00:36:51;3.40;;;0.90;;
29774;SDS011;16676;51.202;6.774;2024-02-23T00:40:53;3.05;;;0.90;;
29774;SDS011;16676;51.202;6.774;2024-02-23T00:44:54;1.98;;;0.65;;
29774;SDS011;16676;51.202;6.774;2024-02-23T00:48:58;1.33;;;0.70;;
29774;SDS011;16676;51.202;6.774;2024-02-23T00:52:59;1.70;;;0.77;;
29774;SDS011;16676;51.202;6.774;2024-02-23T00:57:01;2.80;;;0.90;;
29774;SDS011;16676;51.202;6.774;2024-02-23T01:01:03;2.30;;;0.73;;
29774;SDS011;16676;51.202;6.774;2024-02-23T01:05:07;2.10;;;0.70;;
29774;SDS011;16676;51.202;6.774;2024-02-23T01:09:10;1.80;;;0.68;;
29774;SDS011;16676;51.202;6.774;2024-02-23T01:13:12;1.65;;;0.70;;
29774;SDS011;16676;51.202;6.774;2024-02-23T01:17:14;1.60;;;0.70;;
29774;SDS011;16676;51.202;6.774;2024-02-23T01:21:18;2.72;;;1.02;;
29774;SDS011;16676;51.202;6.774;2024-02-23T01:25:20;2.65;;;0.80;;
29774;SDS011;16676;51.202;6.774;2024-02-23T01:29:22;2.13;;;0.80;;
29774;SDS011;16676;51.202;6.774;2024-02-23T01:33:24;2.83;;;0.77;;
29774;SDS011;16676;51.202;6.774;2024-02-23T01:37:27;1.38;;;0.60;;
29774;SDS011;16676;51.202;6.774;2024-02-23T01:41:29;2.53;;;0.90;;
29774;SDS011;16676;51.202;6.774;2024-02-23T01:45:32;3.03;;;0.93;;
29774;SDS011;16676;51.202;6.774;2024-02-23T01:49:34;1.92;;;0.73;;
29774;SDS011;16676;51.202;6.774;2024-02-23T01:53:38;0.95;;;0.50;;
29774;SDS011;16676;51.202;6.774;2024-02-23T01:57:40;2.03;;;0.70;;
29774;SDS011;16676;51.202;6.774;2024-02-23T02:01:42;1.92;;;0.70;;
29774;SDS011;16676;51.202;6.774;2024-02-23T02:05:44;2.13;;;0.55;;
29774;SDS011;16676;51.202;6.774;2024-02-23T02:09:48;2.40;;;0.70;;
29774;SDS011;16676;51.202;6.774;2024-02-23T02:13:50;0.82;;;0.50;;
29774;SDS011;16676;51.202;6.774;2024-02-23T02:17:52;1.90;;;0.60;;
29774;SDS011;16676;51.202;6.774;2024-02-23T02:21:54;0.80;;;0.50;;
29774;SDS011;16676;51.202;6.774;2024-02-23T02:25:58;2.53;;;0.93;;
29774;SDS011;16676;51.202;6.774;2024-02-23T02:30:00;1.35;;;0.40;;
29774;SDS011;16676;51.202;6.774;2024-02-23T02:34:03;1.73;;;0.68;;
29774;SDS011;16676;51.202;6.774;2024-02-23T02:38:05;1.60;;;0.60;;
29774;SDS011;16676;51.202;6.774;2024-02-23T02:42:08;3.55;;;0.82;;
29774;SDS011;16676;51.202;6.774;2024-02-23T02:46:10;1.65;;;0.40;;
29774;SDS011;16676;51.202;6.774;2024-02-23T02:50:12;1.80;;;0.68;;
29774;SDS011;16676;51.202;6.774;2024-02-23T02:54:14;1.17;;;0.50;;
29774;SDS011;16676;51.202;6.774;2024-02-23T02:58:17;2.00;;;0.68;;
29774;SDS011;16676;51.202;6.774;2024-02-23T03:02:19;1.27;;;0.60;;
29774;SDS011;16676;51.202;6.774;2024-02-23T03:06:21;0.70;;;0.40;;
29774;SDS011;16676;51.202;6.774;2024-02-23T03:10:23;2.38;;;0.25;;
29774;SDS011;16676;51.202;6.774;2024-02-23T03:14:26;1.67;;;0.60;;
29774;SDS011;16676;51.202;6.774;2024-02-23T03:18:28;1.55;;;0.40;;
29774;SDS011;16676;51.202;6.774;2024-02-23T03:22:30;2.80;;;0.60;;
29774;SDS011;16676;51.202;6.774;2024-02-23T03:26:32;2.67;;;0.50;;
29774;SDS011;16676;51.202;6.774;2024-02-23T03:30:35;1.20;;;0.40;;
29774;SDS011;16676;51.202;6.774;2024-02-23T03:34:37;1.50;;;0.50;;
29774;SDS011;16676;51.202;6.774;2024-02-23T03:38:39;1.10;;;0.40;;
29774;SDS011;16676;51.202;6.774;2024-02-23T03:42:41;1.95;;;0.60;;
29774;SDS011;16676;51.202;6.774;2024-02-23T03:46:44;2.35;;;0.60;;
29774;SDS011;16676;51.202;6.774;2024-02-23T03:50:46;1.35;;;0.55;;
29774;SDS011;16676;51.202;6.774;2024-02-23T03:54:48;0.63;;;0.30;;
29774;SDS011;16676;51.202;6.774;2024-02-23T03:58:52;1.13;;;0.50;;
29774;SDS011;16676;51.202;6.774;2024-02-23T04:02:55;1.42;;;0.52;;
29774;SDS011;16676;51.202;6.774;2024-02-23T04:06:57;1.15;;;0.47;;
29774;SDS011;16676;51.202;6.774;2024-02-23T04:10:59;1.55;;;0.30;;
29774;SDS011;16676;51.202;6.774;2024-02-23T04:15:00;1.95;;;0.35;;
29774;SDS011;16676;51.202;6.774;2024-02-23T04:19:04;1.67;;;0.50;;
29774;SDS011;16676;51.202;6.774;2024-02-23T04:23:06;3.20;;;0.70;;
29774;SDS011;16676;51.202;6.774;2024-02-23T04:27:08;0.82;;;0.40;;
29774;SDS011;16676;51.202;6.774;2024-02-23T04:31:10;1.52;;;0.40;;
29774;SDS011;16676;51.202;6.774;2024-02-23T04:35:13;1.42;;;0.43;;
29774;SDS011;16676;51.202;6.774;2024-02-23T04:39:15;0.82;;;0.47;;
29774;SDS011;16676;51.202;6.774;2024-02-23T04:43:17;1.30;;;0.57;;
29774;SDS011;16676;51.202;6.774;2024-02-23T04:47:19;2.78;;;0.60;;
29774;SDS011;16676;51.202;6.774;2024-02-23T04:51:22;1.70;;;0.60;;
29774;SDS011;16676;51.202;6.774;2024-02-23T04:55:24;2.47;;;0.50;;
29774;SDS011;16676;51.202;6.774;2024-02-23T04:59:26;2.42;;;0.60;;
29774;SDS011;16676;51.202;6.774;2024-02-23T05:03:28;1.50;;;0.60;;
29774;SDS011;16676;51.202;6.774;2024-02-23T05:07:31;1.20;;;0.40;;
29774;SDS011;16676;51.202;6.774;2024-02-23T05:11:33;1.40;;;0.45;;
29774;SDS011;16676;51.202;6.774;2024-02-23T05:15:35;1.65;;;0.38;;
29774;SDS011;16676;51.202;6.774;2024-02-23T05:19:37;1.85;;;0.43;;
29774;SDS011;16676;51.202;6.774;2024-02-23T05:23:41;1.20;;;0.50;;
29774;SDS011;16676;51.202;6.774;2024-02-23T05:27:43;2.70;;;0.60;;
29774;SDS011;16676;51.202;6.774;2024-02-23T05:31:45;1.90;;;0.40;;
29774;SDS011;16676;51.202;6.774;2024-02-23T05:35:48;1.67;;;0.40;;
29774;SDS011;16676;51.202;6.774;2024-02-23T05:39:51;4.88;;;0.77;;
29774;SDS011;16676;51.202;6.774;2024-02-23T05:43:54;4.57;;;0.80;;
29774;SDS011;16676;51.202;6.774;2024-02-23T05:47:55;5.20;;;0.60;;
29774;SDS011;16676;51.202;6.774;2024-02-23T05:51:57;2.15;;;0.50;;
29774;SDS011;16676;51.202;6.774;2024-02-23T05:56:00;2.40;;;0.63;;
29774;SDS011;16676;51.202;6.774;2024-02-23T06:00:03;3.30;;;0.70;;
29774;SDS011;16676;51.202;6.774;2024-02-23T06:04:05;1.35;;;0.40;;
29774;SDS011;16676;51.202;6.774;2024-02-23T06:08:07;6.32;;;0.60;;
29774;SDS011;16676;51.202;6.774;2024-02-23T06:12:10;2.15;;;0.70;;
29774;SDS011;16676;51.202;6.774;2024-02-23T06:16:12;3.20;;;0.52;;
29774;SDS011;16676;51.202;6.774;2024-02-23T06:20:14;1.92;;;0.60;;
29774;SDS011;16676;51.202;6.774;2024-02-23T06:24:16;4.70;;;0.63;;
29774;SDS011;16676;51.202;6.774;2024-02-23T06:28:20;2.70;;;0.50;;
29774;SDS011;16676;51.202;6.774;2024-02-23T06:32:22;1.88;;;0.47;;
29774;SDS011;16676;51.202;6.774;2024-02-23T06:36:23;3.25;;;0.88;;
29774;SDS011;16676;51.202;6.774;2024-02-23T06:40:25;1.35;;;0.47;;
29774;SDS011;16676;51.202;6.774;2024-02-23T06:44:28;2.78;;;0.70;;
29774;SDS011;16676;51.202;6.774;2024-02-23T06:48:30;7.28;;;1.30;;
29774;SDS011;16676;51.202;6.774;2024-02-23T06:52:32;4.70;;;1.33;;
29774;SDS011;16676;51.202;6.774;2024-02-23T06:56:34;13.18;;;1.30;;
29774;SDS011;16676;51.202;6.774;2024-02-23T07:00:38;4.47;;;1.40;;
29774;SDS011;16676;51.202;6.774;2024-02-23T07:04:39;7.88;;;1.30;;
29774;SDS011;16676;51.202;6.774;2024-02-23T07:08:41;6.28;;;1.20;;
29774;SDS011;16676;51.202;6.774;2024-02-23T07:12:43;4.60;;;1.20;;
29774;SDS011;16676;51.202;6.774;2024-02-23T07:16:47;5.15;;;1.20;;
29774;SDS011;16676;51.202;6.774;2024-02-23T07:20:49;3.10;;;0.90;;
29774;SDS011;16676;51.202;6.774;2024-02-23T07:24:51;3.03;;;1.00;;
29774;SDS011;16676;51.202;6.774;2024-02-23T07:28:52;4.82;;;1.20;;
29774;SDS011;16676;51.202;6.774;2024-02-23T07:32:56;2.45;;;0.90;;
29774;SDS011;16676;51.202;6.774;2024-02-23T07:36:58;24.17;;;1.35;;
29774;SDS011;16676;51.202;6.774;2024-02-23T07:41:00;4.80;;;1.10;;
29774;SDS011;16676;51.202;6.774;2024-02-23T07:45:02;2.55;;;1.08;;
29774;SDS011;16676;51.202;6.774;2024-02-23T07:49:06;1.60;;;0.80;;
29774;SDS011;16676;51.202;6.774;2024-02-23T07:53:09;2.70;;;1.00;;
29774;SDS011;16676;51.202;6.774;2024-02-23T07:57:11;3.15;;;0.90;;
29774;SDS011;16676;51.202;6.774;2024-02-23T08:01:17;3.97;;;1.05;;
29774;SDS011;16676;51.202;6.774;2024-02-23T08:05:20;2.58;;;0.93;;
29774;SDS011;16676;51.202;6.774;2024-02-23T08:09:22;2.05;;;1.00;;
29774;SDS011;16676;51.202;6.774;2024-02-23T08:13:24;2.83;;;0.75;;
29774;SDS011;16676;51.202;6.774;2024-02-23T08:17:26;2.97;;;1.08;;
29774;SDS011;16676;51.202;6.774;2024-02-23T08:21:29;2.20;;;0.70;;
29774;SDS011;16676;51.202;6.774;2024-02-23T08:25:31;2.53;;;0.75;;
29774;SDS011;16676;51.202;6.774;2024-02-23T08:29:33;2.50;;;0.90;;
29774;SDS011;16676;51.202;6.774;2024-02-23T08:33:38;2.55;;;0.82;;
29774;SDS011;16676;51.202;6.774;2024-02-23T08:37:41;2.25;;;0.88;;
29774;SDS011;16676;51.202;6.774;2024-02-23T08:41:43;1.42;;;0.60;;
29774;SDS011;16676;51.202;6.774;2024-02-23T08:45:45;1.88;;;0.70;;
29774;SDS011;16676;51.202;6.774;2024-02-23T08:49:47;2.33;;;0.90;;
29774;SDS011;16676;51.202;6.774;2024-02-23T08:53:50;2.22;;;0.80;;
29774;SDS011;16676;51.202;6.774;2024-02-23T08:57:52;1.50;;;0.77;;
29774;SDS011;16676;51.202;6.774;2024-02-23T09:01:54;2.10;;;0.75;;
29774;SDS011;16676;51.202;6.774;2024-02-23T09:05:56;2.30;;;0.50;;
29774;SDS011;16676;51.202;6.774;2024-02-23T09:09:59;2.55;;;1.02;;
29774;SDS011;16676;51.202;6.774;2024-02-23T09:14:01;3.03;;;0.80;;
29774;SDS011;16676;51.202;6.774;2024-02-23T09:18:04;2.28;;;0.75;;
29774;SDS011;16676;51.202;6.774;2024-02-23T09:22:06;3.17;;;0.70;;
29774;SDS011;16676;51.202;6.774;2024-02-23T09:26:10;3.42;;;0.82;;
29774;SDS011;16676;51.202;6.774;2024-02-23T09:30:13;2.22;;;0.80;;
29774;SDS011;16676;51.202;6.774;2024-02-23T09:34:15;2.70;;;0.73;;
29774;SDS011;16676;51.202;6.774;2024-02-23T09:38:17;1.45;;;0.43;;
29774;SDS011;16676;51.202;6.774;2024-02-23T09:42:22;2.08;;;0.50;;
29774;SDS011;16676;51.202;6.774;2024-02-23T09:46:25;1.73;;;0.40;;
29774;SDS011;16676;51.202;6.774;2024-02-23T09:50:27;3.55;;;0.90;;
29774;SDS011;16676;51.202;6.774;2024-02-23T09:54:30;2.63;;;0.98;;
29774;SDS011;16676;51.202;6.774;2024-02-23T09:58:33;2.20;;;0.63;;
29774;SDS011;16676;51.202;6.774;2024-02-23T10:02:37;2.67;;;0.45;;
29774;SDS011;16676;51.202;6.774;2024-02-23T10:06:40;1.88;;;0.52;;
29774;SDS011;16676;51.202;6.774;2024-02-23T10:10:45;2.17;;;0.63;;
29774;SDS011;16676;51.202;6.774;2024-02-23T10:14:49;2.53;;;0.50;;
29774;SDS011;16676;51.202;6.774;2024-02-23T10:18:51;2.05;;;0.30;;
29774;SDS011;16676;51.202;6.774;2024-02-23T10:22:53;1.52;;;0.50;;
29774;SDS011;16676;51.202;6.774;2024-02-23T10:26:55;3.63;;;0.70;;
29774;SDS011;16676;51.202;6.774;2024-02-23T10:30:59;4.43;;;0.57;;
29774;SDS011;16676;51.202;6.774;2024-02-23T10:35:02;2.15;;;0.43;;
29774;SDS011;16676;51.202;6.774;2024-02-23T10:39:08;1.63;;;0.47;;
29774;SDS011;16676;51.202;6.774;2024-02-23T10:43:11;0.93;;;0.50;;
29774;SDS011;16676;51.202;6.774;2024-02-23T10:47:19;1.30;;;0.52;;
29774;SDS011;16676;51.202;6.774;2024-02-23T10:51:22;2.42;;;0.60;;
29774;SDS011;16676;51.202;6.774;2024-02-23T10:55:25;1.58;;;0.55;;
29774;SDS011;16676;51.202;6.774;2024-02-23T10:59:29;2.53;;;0.57;;
29774;SDS011;16676;51.202;6.774;2024-02-23T11:03:33;4.78;;;0.73;;
29774;SDS011;16676;51.202;6.774;2024-02-23T11:07:38;1.25;;;0.40;;
29774;SDS011;16676;51.202;6.774;2024-02-23T11:11:50;1.92;;;0.60;;
29774;SDS011;16676;51.202;6.774;2024-02-23T11:15:53;1.50;;;0.30;;
29774;SDS011;16676;51.202;6.774;2024-02-23T11:20:05;1.60;;;0.55;;
29774;SDS011;16676;51.202;6.774;2024-02-23T11:24:08;2.72;;;0.57;;
29774;SDS011;16676;51.202;6.774;2024-02-23T11:28:21;1.65;;;0.60;;
29774;SDS011;16676;51.202;6.774;2024-02-23T11:32:23;1.63;;;0.50;;
29774;SDS011;16676;51.202;6.774;2024-02-23T11:36:39;0.88;;;0.40;;
29774;SDS011;16676;51.202;6.774;2024-02-23T11:40:42;3.90;;;0.57;;
29774;SDS011;16676;51.202;6.774;2024-02-23T11:44:44;3.05;;;0.55;;
29774;SDS011;16676;51.202;6.774;2024-02-23T11:48:46;0.93;;;0.40;;
29774;SDS011;16676;51.202;6.774;2024-02-23T11:52:54;1.15;;;0.20;;
29774;SDS011;16676;51.202;6.774;2024-02-23T11:56:57;1.15;;;0.32;;
29774;SDS011;16676;51.202;6.774;2024-02-23T12:01:00;0.50;;;0.40;;
29774;SDS011;16676;51.202;6.774;2024-02-23T12:05:03;0.90;;;0.40;;
29774;SDS011;16676;51.202;6.774;2024-02-23T12:09:06;1.65;;;0.40;;
29774;SDS011;16676;51.202;6.774;2024-02-23T12:13:09;1.23;;;0.40;;
29774;SDS011;16676;51.202;6.774;2024-02-23T12:17:11;1.08;;;0.50;;
29774;SDS011;16676;51.202;6.774;2024-02-23T12:21:13;1.75;;;0.57;;
29774;SDS011;16676;51.202;6.774;2024-02-23T12:25:17;1.25;;;0.45;;
29774;SDS011;16676;51.202;6.774;2024-02-23T12:29:19;1.58;;;0.47;;
29774;SDS011;16676;51.202;6.774;2024-02-23T12:33:21;2.25;;;0.38;;
29774;SDS011;16676;51.202;6.774;2024-02-23T12:37:23;1.48;;;0.50;;
29774;SDS011;16676;51.202;6.774;2024-02-23T12:41:26;1.00;;;0.40;;
29774;SDS011;16676;51.202;6.774;2024-02-23T12:45:28;1.42;;;0.43;;
29774;SDS011;16676;51.202;6.774;2024-02-23T12:49:30;1.48;;;0.60;;
29774;SDS011;16676;51.202;6.774;2024-02-23T12:53:33;2.55;;;0.60;;
29774;SDS011;16676;51.202;6.774;2024-02-23T12:57:37;2.22;;;0.60;;
29774;SDS011;16676;51.202;6.774;2024-02-23T13:01:39;1.67;;;0.43;;
29774;SDS011;16676;51.202;6.774;2024-02-23T13:05:41;2.03;;;0.50;;
29774;SDS011;16676;51.202;6.774;2024-02-23T13:09:43;1.75;;;0.65;;
29774;SDS011;16676;51.202;6.774;2024-02-23T13:13:46;1.63;;;0.50;;
29774;SDS011;16676;51.202;6.774;2024-02-23T13:17:48;2.33;;;0.57;;
29774;SDS011;16676;51.202;6.774;2024-02-23T13:21:50;2.22;;;0.57;;
29774;SDS011;16676;51.202;6.774;2024-02-23T13:25:53;1.70;;;0.55;;
29774;SDS011;16676;51.202;6.774;2024-02-23T13:29:56;1.67;;;0.57;;
29774;SDS011;16676;51.202;6.774;2024-02-23T13:33:58;1.92;;;0.60;;
29774;SDS011;16676;51.202;6.774;2024-02-23T13:38:00;1.50;;;0.63;;
29774;SDS011;16676;51.202;6.774;2024-02-23T13:42:03;3.65;;;0.93;;
29774;SDS011;16676;51.202;6.774;2024-02-23T13:46:09;2.25;;;0.57;;
29774;SDS011;16676;51.202;6.774;2024-02-23T13:50:11;1.15;;;0.50;;
29774;SDS011;16676;51.202;6.774;2024-02-23T13:54:14;1.83;;;0.68;;
29774;SDS011;16676;51.202;6.774;2024-02-23T13:58:16;1.90;;;0.60;;
29774;SDS011;16676;51.202;6.774;2024-02-23T14:02:24;3.40;;;0.70;;
29774;SDS011;16676;51.202;6.774;2024-02-23T14:06:29;3.28;;;0.98;;
29774;SDS011;16676;51.202;6.774;2024-02-23T14:10:31;3.45;;;0.50;;
29774;SDS011;16676;51.202;6.774;2024-02-23T14:14:32;2.03;;;0.70;;
29774;SDS011;16676;51.202;6.774;2024-02-23T14:18:36;3.58;;;0.70;;
29774;SDS011;16676;51.202;6.774;2024-02-23T14:22:40;3.97;;;0.63;;
29774;SDS011;16676;51.202;6.774;2024-02-23T14:26:42;2.50;;;0.73;;
29774;SDS011;16676;51.202;6.774;2024-02-23T14:30:43;2.50;;;0.77;;
29774;SDS011;16676;51.202;6.774;2024-02-23T14:34:47;2.55;;;0.60;;
29774;SDS011;16676;51.202;6.774;2024-02-23T14:38:49;1.05;;;0.50;;
29774;SDS011;16676;51.202;6.774;2024-02-23T14:42:51;2.17;;;0.80;;
29774;SDS011;16676;51.202;6.774;2024-02-23T14:46:53;4.45;;;0.60;;
29774;SDS011;16676;51.202;6.774;2024-02-23T14:50:57;4.15;;;0.70;;
29774;SDS011;16676;51.202;6.774;2024-02-23T14:54:59;1.83;;;0.40;;
29774;SDS011;16676;51.202;6.774;2024-02-23T14:59:01;1.85;;;0.40;;
29774;SDS011;16676;51.202;6.774;2024-02-23T15:03:03;3.75;;;0.52;;
29774;SDS011;16676;51.202;6.774;2024-02-23T15:07:06;3.55;;;0.90;;
29774;SDS011;16676;51.202;6.774;2024-02-23T15:11:08;1.85;;;0.40;;
29774;SDS011;16676;51.202;6.774;2024-02-23T15:15:10;1.15;;;0.40;;
29774;SDS011;16676;51.202;6.774;2024-02-23T15:19:12;2.35;;;0.50;;
29774;SDS011;16676;51.202;6.774;2024-02-23T15:23:15;2.97;;;0.70;;
29774;SDS011;16676;51.202;6.774;2024-02-23T15:27:18;1.30;;;0.40;;
29774;SDS011;16676;51.202;6.774;2024-02-23T15:31:20;5.45;;;0.95;;
29774;SDS011;16676;51.202;6.774;2024-02-23T15:35:22;2.03;;;0.57;;
29774;SDS011;16676;51.202;6.774;2024-02-23T15:39:28;3.78;;;0.65;;
29774;SDS011;16676;51.202;6.774;2024-02-23T15:43:30;15.18;;;0.80;;
29774;SDS011;16676;51.202;6.774;2024-02-23T15:47:32;3.50;;;0.60;;
29774;SDS011;16676;51.202;6.774;2024-02-23T15:51:33;3.30;;;1.02;;
29774;SDS011;16676;51.202;6.774;2024-02-23T15:55:39;4.07;;;0.73;;
29774;SDS011;16676;51.202;6.774;2024-02-23T15:59:40;2.58;;;0.60;;
29774;SDS011;16676;51.202;6.774;2024-02-23T16:03:42;2.47;;;0.70;;
29774;SDS011;16676;51.202;6.774;2024-02-23T16:07:44;3.95;;;0.70;;
29774;SDS011;16676;51.202;6.774;2024-02-23T16:11:49;4.43;;;0.60;;
29774;SDS011;16676;51.202;6.774;2024-02-23T16:15:51;2.40;;;0.68;;
29774;SDS011;16676;51.202;6.774;2024-02-23T16:19:53;1.88;;;0.45;;
29774;SDS011;16676;51.202;6.774;2024-02-23T16:23:55;2.88;;;0.60;;
29774;SDS011;16676;51.202;6.774;2024-02-23T16:27:58;1.52;;;0.57;;
29774;SDS011;16676;51.202;6.774;2024-02-23T16:32:00;1.25;;;0.50;;
29774;SDS011;16676;51.202;6.774;2024-02-23T16:36:03;1.20;;;0.30;;
29774;SDS011;16676;51.202;6.774;2024-02-23T16:40:06;1.83;;;0.40;;
29774;SDS011;16676;51.202;6.774;2024-02-23T16:44:10;1.38;;;0.60;;
29774;SDS011;16676;51.202;6.774;2024-02-23T16:48:14;2.65;;;0.50;;
29774;SDS011;16676;51.202;6.774;2024-02-23T16:52:16;1.35;;;0.43;;
29774;SDS011;16676;51.202;6.774;2024-02-23T16:56:18;2.17;;;0.60;;
29774;SDS011;16676;51.202;6.774;2024-02-23T17:00:22;2.47;;;0.40;;
29774;SDS011;16676;51.202;6.774;2024-02-23T17:04:25;2.20;;;0.50;;
29774;SDS011;16676;51.202;6.774;2024-02-23T17:08:27;1.00;;;0.32;;
29774;SDS011;16676;51.202;6.774;2024-02-23T17:12:29;2.45;;;0.35;;
29774;SDS011;16676;51.202;6.774;2024-02-23T17:16:32;2.38;;;0.40;;
29774;SDS011;16676;51.202;6.774;2024-02-23T17:20:34;5.82;;;0.60;;
29774;SDS011;16676;51.202;6.774;2024-02-23T17:24:36;4.15;;;0.55;;
29774;SDS011;16676;51.202;6.774;2024-02-23T17:28:38;5.68;;;0.70;;
29774;SDS011;16676;51.202;6.774;2024-02-23T17:32:43;2.85;;;0.50;;
29774;SDS011;16676;51.202;6.774;2024-02-23T17:36:45;1.63;;;0.45;;
29774;SDS011;16676;51.202;6.774;2024-02-23T17:40:47;1.40;;;0.60;;
29774;SDS011;16676;51.202;6.774;2024-02-23T17:44:51;5.95;;;0.55;;
29774;SDS011;16676;51.202;6.774;2024-02-23T17:48:54;6.93;;;0.80;;
29774;SDS011;16676;51.202;6.774;2024-02-23T17:52:56;10.98;;;0.80;;
29774;SDS011;16676;51.202;6.774;2024-02-23T17:56:59;3.75;;;0.88;;
29774;SDS011;16676;51.202;6.774;2024-02-23T18:01:01;4.22;;;0.68;;
29774;SDS011;16676;51.202;6.774;2024-02-23T18:05:05;5.00;;;1.00;;
29774;SDS011;16676;51.202;6.774;2024-02-23T18:09:07;2.15;;;0.90;;
29774;SDS011;16676;51.202;6.774;2024-02-23T18:13:09;5.47;;;1.00;;
29774;SDS011;16676;51.202;6.774;2024-02-23T18:17:13;2.67;;;0.60;;
29774;SDS011;16676;51.202;6.774;2024-02-23T18:21:16;5.03;;;0.80;;
29774;SDS011;16676;51.202;6.774;2024-02-23T18:25:18;2.42;;;0.68;;
29774;SDS011;16676;51.202;6.774;2024-02-23T18:29:20;3.03;;;0.90;;
29774;SDS011;16676;51.202;6.774;2024-02-23T18:33:22;2.38;;;0.80;;
29774;SDS011;16676;51.202;6.774;2024-02-23T18:37:25;4.13;;;1.00;;
29774;SDS011;16676;51.202;6.774;2024-02-23T18:41:27;2.72;;;0.80;;
29774;SDS011;16676;51.202;6.774;2024-02-23T18:45:29;3.13;;;0.82;;
29774;SDS011;16676;51.202;6.774;2024-02-23T18:49:32;3.03;;;0.93;;
29774;SDS011;16676;51.202;6.774;2024-02-23T18:53:36;1.65;;;0.75;;
29774;SDS011;16676;51.202;6.774;2024-02-23T18:57:38;4.40;;;0.90;;
29774;SDS011;16676;51.202;6.774;2024-02-23T19:01:40;4.05;;;1.23;;
29774;SDS011;16676;51.202;6.774;2024-02-23T19:05:43;2.58;;;1.13;;
29774;SDS011;16676;51.202;6.774;2024-02-23T19:09:46;5.60;;;1.17;;
29774;SDS011;16676;51.202;6.774;2024-02-23T19:13:49;3.03;;;1.30;;
29774;SDS011;16676;51.202;6.774;2024-02-23T19:17:51;5.47;;;1.75;;
29774;SDS011;16676;51.202;6.774;2024-02-23T19:21:53;3.80;;;1.67;;
29774;SDS011;16676;51.202;6.774;2024-02-23T19:25:56;5.57;;;1.80;;
29774;SDS011;16676;51.202;6.774;2024-02-23T19:29:58;5.78;;;2.70;;
29774;SDS011;16676;51.202;6.774;2024-02-23T19:34:04;6.88;;;3.53;;
29774;SDS011;16676;51.202;6.774;2024-02-23T19:38:07;6.18;;;3.17;;
29774;SDS011;16676;51.202;6.774;2024-02-23T19:42:10;4.20;;;2.70;;
29774;SDS011;16676;51.202;6.774;2024-02-23T19:46:14;5.05;;;2.60;;
29774;SDS011;16676;51.202;6.774;2024-02-23T19:50:18;4.47;;;2.70;;
29774;SDS011;16676;51.202;6.774;2024-02-23T19:54:20;5.90;;;2.90;;
29774;SDS011;16676;51.202;6.774;2024-02-23T19:58:24;5.75;;;3.33;;
29774;SDS011;16676;51.202;6.774;2024-02-23T20:02:26;4.70;;;2.35;;
29774;SDS011;16676;51.202;6.774;2024-02-23T20:06:28;3.20;;;2.30;;
29774;SDS011;16676;51.202;6.774;2024-02-23T20:10:29;4.38;;;2.53;;
29774;SDS011;16676;51.202;6.774;2024-02-23T20:14:33;4.05;;;2.47;;
29774;SDS011;16676;51.202;6.774;2024-02-23T20:18:36;4.45;;;2.67;;
29774;SDS011;16676;51.202;6.774;2024-02-23T20:22:38;3.75;;;2.63;;
29774;SDS011;16676;51.202;6.774;2024-02-23T20:26:39;5.85;;;2.97;;
29774;SDS011;16676;51.202;6.774;2024-02-23T20:30:43;3.05;;;2.38;;
29774;SDS011;16676;51.202;6.774;2024-02-23T20:34:45;7.00;;;2.92;;
29774;SDS011;16676;51.202;6.774;2024-02-23T20:38:47;4.78;;;2.65;;
29774;SDS011;16676;51.202;6.774;2024-02-23T20:42:50;3.53;;;2.40;;
29774;SDS011;16676;51.202;6.774;2024-02-23T20:46:53;2.90;;;2.42;;
29774;SDS011;16676;51.202;6.774;2024-02-23T20:50:55;5.13;;;2.65;;
29774;SDS011;16676;51.202;6.774;2024-02-23T20:54:59;4.70;;;2.67;;
29774;SDS011;16676;51.202;6.774;2024-02-23T20:59:00;3.22;;;2.13;;
29774;SDS011;16676;51.202;6.774;2024-02-23T21:03:04;3.83;;;2.10;;
29774;SDS011;16676;51.202;6.774;2024-02-23T21:07:07;3.50;;;2.20;;
29774;SDS011;16676;51.202;6.774;2024-02-23T21:11:09;3.80;;;2.20;;
29774;SDS011;16676;51.202;6.774;2024-02-23T21:15:11;4.57;;;2.42;;
29774;SDS011;16676;51.202;6.774;2024-02-23T21:19:14;18.88;;;7.25;;
29774;SDS011;16676;51.202;6.774;2024-02-23T21:23:16;14.38;;;7.00;;
29774;SDS011;16676;51.202;6.774;2024-02-23T21:27:18;14.43;;;5.53;;
29774;SDS011;16676;51.202;6.774;2024-02-23T21:31:20;11.80;;;5.88;;
29774;SDS011;16676;51.202;6.774;2024-02-23T21:35:23;13.15;;;5.05;;
29774;SDS011;16676;51.202;6.774;2024-02-23T21:39:25;12.82;;;5.53;;
29774;SDS011;16676;51.202;6.774;2024-02-23T21:43:27;11.60;;;4.80;;
29774;SDS011;16676;51.202;6.774;2024-02-23T21:47:29;10.52;;;4.35;;
29774;SDS011;16676;51.202;6.774;2024-02-23T21:51:32;13.23;;;4.85;;
29774;SDS011;16676;51.202;6.774;2024-02-23T21:55:34;8.63;;;4.65;;
29774;SDS011;16676;51.202;6.774;2024-02-23T21:59:36;12.48;;;4.50;;
29774;SDS011;16676;51.202;6.774;2024-02-23T22:03:38;11.95;;;4.70;;
29774;SDS011;16676;51.202;6.774;2024-02-23T22:07:41;14.68;;;5.15;;
29774;SDS011;16676;51.202;6.774;2024-02-23T22:11:43;10.88;;;4.40;;
29774;SDS011;16676;51.202;6.774;2024-02-23T22:15:45;7.88;;;4.07;;
29774;SDS011;16676;51.202;6.774;2024-02-23T22:19:47;12.38;;;4.40;;
29774;SDS011;16676;51.202;6.774;2024-02-23T22:23:50;9.43;;;3.70;;
29774;SDS011;16676;51.202;6.774;2024-02-23T22:27:52;9.70;;;4.03;;
29774;SDS011;16676;51.202;6.774;2024-02-23T22:31:54;8.73;;;4.15;;
29774;SDS011;16676;51.202;6.774;2024-02-23T22:35:56;7.95;;;3.40;;
29774;SDS011;16676;51.202;6.774;2024-02-23T22:39:59;9.73;;;4.10;;
29774;SDS011;16676;51.202;6.774;2024-02-23T22:44:01;6.38;;;3.38;;
29774;SDS011;16676;51.202;6.774;2024-02-23T22:48:04;8.38;;;3.60;;
29774;SDS011;16676;51.202;6.774;2024-02-23T22:52:08;6.53;;;3.22;;
29774;SDS011;16676;51.202;6.774;2024-02-23T22:56:12;5.85;;;2.88;;
29774;SDS011;16676;51.202;6.774;2024-02-23T23:00:14;8.80;;;3.75;;
29774;SDS011;16676;51.202;6.774;2024-02-23T23:04:17;7.43;;;3.45;;
29774;SDS011;16676;51.202;6.774;2024-02-23T23:08:19;6.53;;;2.70;;
29774;SDS011;16676;51.202;6.774;2024-02-23T23:12:22;8.02;;;3.30;;
29774;SDS011;16676;51.202;6.774;2024-02-23T23:16:24;6.93;;;3.30;;
29774;SDS011;16676;51.202;6.774;2024-02-23T23:20:26;7.35;;;3.50;;
29774;SDS011;16676;51.202;6.774;2024-02-23T23:24:28;5.82;;;3.08;;
29774;SDS011;16676;51.202;6.774;2024-02-23T23:28:31;9.15;;;3.22;;
29774;SDS011;16676;51.202;6.774;2024-02-23T23:32:33;7.15;;;2.83;;
29774;SDS011;16676;51.202;6.774;2024-02-23T23:36:35;6.97;;;2.95;;
29774;SDS011;16676;51.202;6.774;2024-02-23T23:40:37;7.95;;;3.30;;
29774;SDS011;16676;51.202;6.774;2024-02-23T23:44:40;5.60;;;2.67;;
29774;SDS011;16676;51.202;6.774;2024-02-23T23:48:42;6.25;;;2.58;;
29774;SDS011;16676;51.202;6.774;2024-02-23T23:52:44;7.07;;;2.85;;
29774;SDS011;16676;51.202;6.774;2024-02-23T23:56:46;7.57;;;2.78;;
